Time,TemperatureF,DewpointF,PressureIn,WindDirection,WindDirectionDegrees,WindSpeedMPH,WindSpeedGustMPH,Humidity,HourlyPrecipIn,Conditions,Clouds,dailyrainin,SoftwareType,DateUTC
2013-01-07 00:01:00,31.0,21.0,30.35,East,87,0.0,0.0,66,0.00,,,0.00,weatherlink.com 1.10,2013-01-07 06:01:00,
2013-01-07 00:16:00,30.5,21.0,30.36,East,87,0.0,0.0,67,0.00,,,0.00,weatherlink.com 1.10,2013-01-07 06:16:00,
2013-01-07 00:32:00,28.2,20.0,30.36,East,87,0.0,0.0,71,0.00,,,0.00,weatherlink.com 1.10,2013-01-07 06:32:00,
2013-01-07 00:47:00,26.2,19.0,30.36,East,87,0.0,0.0,75,0.00,,,0.00,weatherlink.com 1.10,2013-01-07 06:47:00,
2013-01-07 01:02:00,25.9,19.0,30.36,East,87,0.0,0.0,76,0.00,,,0.00,weatherlink.com 1.10,2013-01-07 07:02:00,
2013-01-07 01:17:00,27.5,20.0,30.35,East,87,0.0,0.0,74,0.00,,,0.00,weatherlink.com 1.10,2013-01-07 07:17:00,
2013-01-07 01:32:00,27.4,20.0,30.35,East,87,0.0,0.0,74,0.00,,,0.00,weatherlink.com 1.10,2013-01-07 07:32:00,
2013-01-07 01:47:00,27.4,21.0,30.35,East,87,0.0,0.0,76,0.00,,,0.00,weatherlink.com 1.10,2013-01-07 07:47:00,
2013-01-07 02:02:00,27.9,20.0,30.35,East,87,0.0,0.0,73,0.00,,,0.00,weatherlink.com 1.10,2013-01-07 08:02:00,
2013-01-07 02:17:00,27.6,21.0,30.34,East,87,0.0,0.0,75,0.00,,,0.00,weatherlink.com 1.10,2013-01-07 08:17:00,
2013-01-07 02:32:00,27.1,20.0,30.34,East,87,0.0,0.0,76,0.00,,,0.00,weatherlink.com 1.10,2013-01-07 08:32:00,
2013-01-07 02:47:00,25.1,19.0,30.34,East,87,0.0,0.0,78,0.00,,,0.00,weatherlink.com 1.10,2013-01-07 08:47:00,
2013-01-07 03:02:00,25.0,19.0,30.33,East,87,0.0,0.0,78,0.00,,,0.00,weatherlink.com 1.10,2013-01-07 09:02:00,
2013-01-07 03:17:00,24.8,19.0,30.33,East,87,0.0,0.0,79,0.00,,,0.00,weatherlink.com 1.10,2013-01-07 09:17:00,
2013-01-07 03:32:00,24.5,19.0,30.32,East,87,0.0,0.0,81,0.00,,,0.00,weatherlink.com 1.10,2013-01-07 09:32:00,
2013-01-07 03:47:00,26.6,21.0,30.32,East,87,0.0,0.0,79,0.00,,,0.00,weatherlink.com 1.10,2013-01-07 09:47:00,
2013-01-07 04:02:00,26.1,20.0,30.32,East,87,0.0,0.0,77,0.00,,,0.00,weatherlink.com 1.10,2013-01-07 10:02:00,
2013-01-07 04:17:00,25.5,19.0,30.32,East,87,0.0,0.0,77,0.00,,,0.00,weatherlink.com 1.10,2013-01-07 10:17:00,
2013-01-07 04:32:00,23.4,18.0,30.32,East,87,0.0,0.0,81,0.00,,,0.00,weatherlink.com 1.10,2013-01-07 10:32:00,
2013-01-07 04:47:00,23.4,18.0,30.32,East,87,0.0,0.0,81,0.00,,,0.00,weatherlink.com 1.10,2013-01-07 10:47:00,
2013-01-07 05:02:00,23.9,19.0,30.32,East,87,0.0,0.0,82,0.00,,,0.00,weatherlink.com 1.10,2013-01-07 11:02:00,
2013-01-07 05:17:00,25.2,20.0,30.32,East,87,0.0,0.0,81,0.00,,,0.00,weatherlink.com 1.10,2013-01-07 11:17:00,
2013-01-07 05:32:00,26.1,20.0,30.32,East,87,0.0,0.0,79,0.00,,,0.00,weatherlink.com 1.10,2013-01-07 11:32:00,
2013-01-07 05:47:00,26.5,20.0,30.32,East,87,0.0,0.0,77,0.00,,,0.00,weatherlink.com 1.10,2013-01-07 11:47:00,
2013-01-07 06:02:00,24.2,19.0,30.33,East,87,0.0,1.0,81,0.00,,,0.00,weatherlink.com 1.10,2013-01-07 12:02:00,
2013-01-07 06:17:00,26.0,21.0,30.33,East,90,0.0,1.0,80,0.00,,,0.00,weatherlink.com 1.10,2013-01-07 12:17:00,
2013-01-07 06:32:00,27.0,21.0,30.33,SE,137,0.0,5.0,78,0.00,,,0.00,weatherlink.com 1.10,2013-01-07 12:32:00,
2013-01-07 06:47:00,27.8,21.0,30.33,SSE,152,0.0,6.0,76,0.00,,,0.00,weatherlink.com 1.10,2013-01-07 12:47:00,
2013-01-07 07:02:00,27.9,21.0,30.32,SE,146,0.0,7.0,76,0.00,,,0.00,weatherlink.com 1.10,2013-01-07 13:02:00,
2013-01-07 07:17:00,27.8,21.0,30.33,SSE,156,0.0,6.0,76,0.00,,,0.00,weatherlink.com 1.10,2013-01-07 13:17:00,
2013-01-07 07:32:00,27.3,21.0,30.33,SSE,155,0.0,3.0,77,0.00,,,0.00,weatherlink.com 1.10,2013-01-07 13:32:00,
2013-01-07 07:47:00,26.9,21.0,30.33,SSE,167,4.0,6.0,77,0.00,,,0.00,weatherlink.com 1.10,2013-01-07 13:47:00,
2013-01-07 08:02:00,26.9,21.0,30.33,South,185,0.0,4.0,78,0.00,,,0.00,weatherlink.com 1.10,2013-01-07 14:02:00,
2013-01-07 08:17:00,26.3,21.0,30.33,South,185,5.0,6.0,80,0.00,,,0.00,weatherlink.com 1.10,2013-01-07 14:17:00,
2013-01-07 08:32:00,28.3,23.0,30.33,South,171,0.0,7.0,79,0.00,,,0.00,weatherlink.com 1.10,2013-01-07 14:32:00,
2013-01-07 08:47:00,29.3,23.0,30.34,South,178,3.0,8.0,78,0.00,,,0.00,weatherlink.com 1.10,2013-01-07 14:47:00,
2013-01-07 09:02:00,30.7,24.0,30.34,South,183,3.0,5.0,77,0.00,,,0.00,weatherlink.com 1.10,2013-01-07 15:02:00,
2013-01-07 09:17:00,32.7,25.0,30.34,South,184,0.0,7.0,74,0.00,,,0.00,weatherlink.com 1.10,2013-01-07 15:17:00,
2013-01-07 09:32:00,34.7,27.0,30.35,SSE,148,0.0,6.0,72,0.00,,,0.00,weatherlink.com 1.10,2013-01-07 15:32:00,
2013-01-07 09:47:00,35.6,26.0,30.34,South,175,7.0,10.0,69,0.00,,,0.00,weatherlink.com 1.10,2013-01-07 15:47:00,
2013-01-07 10:02:00,36.7,27.0,30.34,SSE,156,6.0,10.0,68,0.00,,,0.00,weatherlink.com 1.10,2013-01-07 16:02:00,
2013-01-07 10:17:00,37.7,27.0,30.34,SSE,148,4.0,12.0,66,0.00,,,0.00,weatherlink.com 1.10,2013-01-07 16:17:00,
2013-01-07 10:33:00,38.8,28.0,30.34,SSW,208,9.0,14.0,65,0.00,,,0.00,weatherlink.com 1.10,2013-01-07 16:33:00,
2013-01-07 10:48:00,40.1,28.0,30.33,South,180,7.0,11.0,63,0.00,,,0.00,weatherlink.com 1.10,2013-01-07 16:48:00,
2013-01-07 11:03:00,40.2,29.0,30.33,South,170,6.0,15.0,64,0.00,,,0.00,weatherlink.com 1.10,2013-01-07 17:03:00,
2013-01-07 11:18:00,41.6,29.0,30.32,SSE,159,4.0,16.0,61,0.00,,,0.00,weatherlink.com 1.10,2013-01-07 17:18:00,
2013-01-07 11:33:00,42.7,30.0,30.30,SSE,152,8.0,18.0,60,0.00,,,0.00,weatherlink.com 1.10,2013-01-07 17:33:00,
2013-01-07 11:48:00,43.4,29.0,30.29,South,171,6.0,13.0,58,0.00,,,0.00,weatherlink.com 1.10,2013-01-07 17:48:00,
2013-01-07 12:03:00,44.3,30.0,30.28,SE,135,6.0,12.0,58,0.00,,,0.00,weatherlink.com 1.10,2013-01-07 18:03:00,
2013-01-07 12:18:00,45.0,30.0,30.26,SSE,159,8.0,13.0,57,0.00,,,0.00,weatherlink.com 1.10,2013-01-07 18:18:00,
2013-01-07 12:33:00,45.5,30.0,30.25,South,180,4.0,12.0,55,0.00,,,0.00,weatherlink.com 1.10,2013-01-07 18:33:00,
2013-01-07 12:48:00,46.2,30.0,30.24,South,183,5.0,14.0,54,0.00,,,0.00,weatherlink.com 1.10,2013-01-07 18:48:00,
2013-01-07 13:03:00,47.6,30.0,30.23,South,190,9.0,15.0,51,0.00,,,0.00,weatherlink.com 1.10,2013-01-07 19:03:00,
2013-01-07 13:18:00,47.6,30.0,30.22,SSW,194,7.0,16.0,51,0.00,,,0.00,weatherlink.com 1.10,2013-01-07 19:18:00,
2013-01-07 13:33:00,48.5,30.0,30.22,SSE,160,7.0,17.0,50,0.00,,,0.00,weatherlink.com 1.10,2013-01-07 19:33:00,
2013-01-07 13:48:00,49.2,30.0,30.21,SSW,203,9.0,13.0,48,0.00,,,0.00,weatherlink.com 1.10,2013-01-07 19:48:00,
2013-01-07 14:03:00,50.8,31.0,30.20,South,169,11.0,14.0,46,0.00,,,0.00,weatherlink.com 1.10,2013-01-07 20:03:00,
2013-01-07 14:18:00,49.8,30.0,30.19,SSW,205,10.0,13.0,47,0.00,,,0.00,weatherlink.com 1.10,2013-01-07 20:18:00,
2013-01-07 14:33:00,50.2,29.0,30.19,SSE,165,10.0,15.0,45,0.00,,,0.00,weatherlink.com 1.10,2013-01-07 20:33:00,
2013-01-07 14:48:00,50.3,30.0,30.18,SSW,192,10.0,15.0,45,0.00,,,0.00,weatherlink.com 1.10,2013-01-07 20:48:00,
2013-01-07 15:03:00,50.5,30.0,30.18,SSE,160,8.0,14.0,45,0.00,,,0.00,weatherlink.com 1.10,2013-01-07 21:03:00,
2013-01-07 15:18:00,50.8,30.0,30.18,South,186,3.0,11.0,45,0.00,,,0.00,weatherlink.com 1.10,2013-01-07 21:18:00,
2013-01-07 15:33:00,49.6,31.0,30.17,South,181,5.0,11.0,49,0.00,,,0.00,weatherlink.com 1.10,2013-01-07 21:33:00,
2013-01-07 15:48:00,49.6,31.0,30.17,SSE,161,3.0,10.0,49,0.00,,,0.00,weatherlink.com 1.10,2013-01-07 21:48:00,
2013-01-07 16:03:00,50.1,30.0,30.17,SE,146,1.0,11.0,46,0.00,,,0.00,weatherlink.com 1.10,2013-01-07 22:03:00,
2013-01-07 16:18:00,49.8,29.0,30.17,SSE,158,3.0,12.0,45,0.00,,,0.00,weatherlink.com 1.10,2013-01-07 22:18:00,
2013-01-07 16:33:00,49.3,29.0,30.17,South,170,2.0,11.0,45,0.00,,,0.00,weatherlink.com 1.10,2013-01-07 22:33:00,
2013-01-07 16:48:00,48.5,29.0,30.17,SSW,197,0.0,8.0,47,0.00,,,0.00,weatherlink.com 1.10,2013-01-07 22:48:00,
2013-01-07 17:03:00,47.9,29.0,30.16,SE,140,0.0,4.0,48,0.00,,,0.00,weatherlink.com 1.10,2013-01-07 23:03:00,
2013-01-07 17:18:00,46.7,29.0,30.17,SE,140,0.0,4.0,51,0.00,,,0.00,weatherlink.com 1.10,2013-01-07 23:18:00,
2013-01-07 17:33:00,46.2,30.0,30.17,SE,140,0.0,4.0,53,0.00,,,0.00,weatherlink.com 1.10,2013-01-07 23:33:00,
2013-01-07 17:48:00,45.4,29.0,30.17,SSW,193,0.0,4.0,54,0.00,,,0.00,weatherlink.com 1.10,2013-01-07 23:48:00,
2013-01-07 18:03:00,45.3,29.0,30.17,SSE,163,1.0,5.0,54,0.00,,,0.00,weatherlink.com 1.10,2013-01-08 00:03:00,
2013-01-07 18:19:00,45.0,29.0,30.17,South,186,0.0,5.0,54,0.00,,,0.00,weatherlink.com 1.10,2013-01-08 00:19:00,
2013-01-07 18:33:00,44.1,29.0,30.17,South,186,0.0,2.0,56,0.00,,,0.00,weatherlink.com 1.10,2013-01-08 00:33:00,
2013-01-07 18:48:00,43.1,29.0,30.17,South,186,0.0,3.0,57,0.00,,,0.00,weatherlink.com 1.10,2013-01-08 00:48:00,
2013-01-07 19:03:00,42.5,29.0,30.17,South,186,0.0,3.0,59,0.00,,,0.00,weatherlink.com 1.10,2013-01-08 01:03:00,
2013-01-07 19:18:00,42.2,29.0,30.16,South,186,0.0,2.0,59,0.00,,,0.00,weatherlink.com 1.10,2013-01-08 01:18:00,
2013-01-07 19:34:00,42.0,29.0,30.16,South,186,0.0,4.0,60,0.00,,,0.00,weatherlink.com 1.10,2013-01-08 01:34:00,
2013-01-07 19:49:00,41.9,29.0,30.15,South,186,0.0,4.0,60,0.00,,,0.00,weatherlink.com 1.10,2013-01-08 01:49:00,
2013-01-07 20:04:00,41.4,29.0,30.15,South,186,0.0,1.0,61,0.00,,,0.00,weatherlink.com 1.10,2013-01-08 02:04:00,
2013-01-07 20:19:00,40.5,29.0,30.14,South,186,0.0,0.0,64,0.00,,,0.00,weatherlink.com 1.10,2013-01-08 02:19:00,
2013-01-07 20:34:00,40.8,29.0,30.15,South,186,1.0,4.0,63,0.00,,,0.00,weatherlink.com 1.10,2013-01-08 02:34:00,
2013-01-07 20:49:00,39.9,29.0,30.15,South,186,0.0,4.0,64,0.00,,,0.00,weatherlink.com 1.10,2013-01-08 02:49:00,
2013-01-07 21:04:00,39.6,29.0,30.14,South,186,1.0,3.0,65,0.00,,,0.00,weatherlink.com 1.10,2013-01-08 03:04:00,
2013-01-07 21:19:00,40.3,29.0,30.14,South,186,1.0,3.0,64,0.00,,,0.00,weatherlink.com 1.10,2013-01-08 03:19:00,
2013-01-07 21:34:00,40.4,29.0,30.14,South,186,0.0,4.0,63,0.00,,,0.00,weatherlink.com 1.10,2013-01-08 03:34:00,
2013-01-07 21:49:00,39.6,28.0,30.14,South,186,1.0,4.0,64,0.00,,,0.00,weatherlink.com 1.10,2013-01-08 03:49:00,
2013-01-07 22:04:00,39.1,29.0,30.14,South,186,0.0,4.0,66,0.00,,,0.00,weatherlink.com 1.10,2013-01-08 04:04:00,
2013-01-07 22:19:00,38.9,28.0,30.13,South,186,0.0,0.0,66,0.00,,,0.00,weatherlink.com 1.10,2013-01-08 04:19:00,
2013-01-07 22:34:00,38.3,28.0,30.13,South,186,0.0,3.0,67,0.00,,,0.00,weatherlink.com 1.10,2013-01-08 04:34:00,
2013-01-07 22:49:00,38.6,29.0,30.13,South,186,4.0,6.0,68,0.00,,,0.00,weatherlink.com 1.10,2013-01-08 04:49:00,
2013-01-07 23:04:00,37.5,28.0,30.12,South,186,0.0,4.0,69,0.00,,,0.00,weatherlink.com 1.10,2013-01-08 05:04:00,
2013-01-07 23:19:00,37.3,28.0,30.12,South,186,0.0,3.0,69,0.00,,,0.00,weatherlink.com 1.10,2013-01-08 05:19:00,
2013-01-07 23:34:00,36.9,28.0,30.12,South,186,0.0,2.0,70,0.00,,,0.00,weatherlink.com 1.10,2013-01-08 05:34:00,
2013-01-07 23:49:00,36.6,28.0,30.12,South,186,0.0,3.0,70,0.00,,,0.00,weatherlink.com 1.10,2013-01-08 05:49:00,